Time;durP1;ratioP1;P1;durP2;ratioP2;P2;SDS_P1;SDS_P2;PMS_P1;PMS_P2;Temp;Humidity;BMP_temperature;BMP_pressure;BME280_temperature;BME280_humidity;BME280_pressure;Samples;Min_cycle;Max_cycle;Signal;HPM_P1;HPM_P2
2023/04/17 00:01:31;;;;;;;22.05;13.52;;;1.80;99.90;;;;;;5020272;28;20056;-64
2023/04/17 00:03:58;;;;;;;20.75;14.18;;;1.80;99.90;;;;;;5016102;28;20136;-63
2023/04/17 00:06:26;;;;;;;17.13;12.45;;;1.80;99.90;;;;;;5023201;28;20056;-66
2023/04/17 00:08:53;;;;;;;16.40;12.35;;;1.80;99.90;;;;;;5033518;28;20543;-72
2023/04/17 00:11:20;;;;;;;21.75;12.07;;;1.80;99.90;;;;;;5041274;28;20049;-62
2023/04/17 00:13:47;;;;;;;21.77;12.98;;;1.90;99.90;;;;;;5039125;28;20054;-66
2023/04/17 00:16:14;;;;;;;23.85;13.05;;;1.90;99.90;;;;;;5042569;28;20083;-67
2023/04/17 00:18:41;;;;;;;18.65;13.52;;;1.90;99.90;;;;;;5044258;28;20083;-70
2023/04/17 00:21:07;;;;;;;20.98;13.10;;;1.90;99.90;;;;;;5047454;28;20047;-63
2023/04/17 00:23:34;;;;;;;19.90;13.48;;;1.90;99.90;;;;;;5041374;28;20076;-65
2023/04/17 00:26:01;;;;;;;18.63;12.82;;;1.90;99.90;;;;;;5044548;28;20621;-65
2023/04/17 00:28:28;;;;;;;25.83;15.50;;;1.90;99.90;;;;;;5042338;28;20052;-63
2023/04/17 00:30:57;;;;;;;22.65;15.32;;;1.90;99.90;;;;;;5033232;28;20045;-68
2023/04/17 00:33:24;;;;;;;24.48;14.93;;;1.90;99.90;;;;;;5023754;28;20079;-69
2023/04/17 00:35:52;;;;;;;21.08;15.30;;;1.90;99.90;;;;;;5037316;28;20064;-63
2023/04/17 00:38:19;;;;;;;24.65;16.88;;;1.90;99.90;;;;;;5031721;28;20084;-66
2023/04/17 00:40:46;;;;;;;24.02;16.02;;;1.90;99.90;;;;;;5045914;28;20132;-63
2023/04/17 00:43:13;;;;;;;22.70;15.45;;;1.90;99.90;;;;;;5025594;28;20144;-62
2023/04/17 00:45:40;;;;;;;24.48;17.63;;;2.00;99.90;;;;;;5040142;28;20541;-72
2023/04/17 00:48:09;;;;;;;23.13;17.05;;;1.90;99.90;;;;;;5040556;28;20063;-63
2023/04/17 00:50:37;;;;;;;22.23;14.48;;;1.90;99.90;;;;;;5040536;28;20063;-70
2023/04/17 00:53:03;;;;;;;22.90;15.45;;;1.90;99.90;;;;;;5039824;28;20046;-67
2023/04/17 00:55:33;;;;;;;25.40;16.63;;;1.90;99.90;;;;;;5047195;28;20560;-66
2023/04/17 00:58:01;;;;;;;27.95;17.38;;;1.90;99.90;;;;;;5040024;28;20049;-76
2023/04/17 01:00:28;;;;;;;22.80;17.92;;;1.90;99.90;;;;;;5025430;28;20041;-65
2023/04/17 01:02:56;;;;;;;33.30;17.98;;;1.90;99.90;;;;;;5019283;28;20049;-63
2023/04/17 01:05:27;;;;;;;24.08;18.70;;;1.90;99.90;;;;;;5036853;28;20481;-68
2023/04/17 01:07:56;;;;;;;22.60;17.17;;;1.90;99.90;;;;;;5026067;28;20045;-63
2023/04/17 01:10:23;;;;;;;22.05;16.25;;;1.90;99.90;;;;;;5047606;28;20084;-63
2023/04/17 01:13:08;;;;;;;21.27;16.67;;;1.90;99.90;;;;;;5040971;28;20541;-67
2023/04/17 01:15:37;;;;;;;20.30;13.63;;;1.90;99.90;;;;;;5056725;28;20061;-66
2023/04/17 01:18:05;;;;;;;23.73;16.55;;;1.90;99.90;;;;;;5035499;28;20042;-62
2023/04/17 01:20:32;;;;;;;22.63;15.70;;;1.90;99.90;;;;;;5026882;28;20512;-64
2023/04/17 01:23:00;;;;;;;27.08;17.33;;;1.80;99.90;;;;;;5037635;28;20150;-65
2023/04/17 01:25:27;;;;;;;28.52;17.98;;;1.80;99.90;;;;;;5028352;28;20056;-69
2023/04/17 01:27:55;;;;;;;20.80;15.20;;;1.80;99.90;;;;;;5018504;28;20054;-64
2023/04/17 01:30:23;;;;;;;27.85;17.42;;;1.80;99.90;;;;;;5035878;28;20059;-66
2023/04/17 01:33:05;;;;;;;27.63;18.02;;;1.80;99.90;;;;;;5043693;28;20053;-65
2023/04/17 01:35:32;;;;;;;25.63;16.52;;;1.80;99.90;;;;;;5032798;28;20392;-62
2023/04/17 01:37:59;;;;;;;25.42;17.30;;;1.80;99.90;;;;;;5027615;28;20052;-64
2023/04/17 01:40:26;;;;;;;26.15;15.93;;;1.80;99.90;;;;;;5004533;28;20068;-64
2023/04/17 01:42:53;;;;;;;21.83;15.52;;;1.70;99.90;;;;;;5014377;28;20045;-62
2023/04/17 01:45:20;;;;;;;29.23;14.95;;;1.70;99.90;;;;;;5028210;28;20058;-67
2023/04/17 01:47:47;;;;;;;23.40;16.05;;;1.70;99.90;;;;;;5039424;28;20059;-65
2023/04/17 01:50:14;;;;;;;21.65;15.68;;;1.70;99.90;;;;;;5030971;28;20099;-68
2023/04/17 01:52:41;;;;;;;23.42;15.23;;;1.80;99.90;;;;;;5039509;28;20107;-66
2023/04/17 01:55:09;;;;;;;18.85;12.80;;;1.80;99.90;;;;;;5028241;28;20108;-72
2023/04/17 01:57:35;;;;;;;25.60;15.27;;;1.80;99.90;;;;;;5029592;28;20534;-64
2023/04/17 02:00:08;;;;;;;25.27;12.13;;;1.80;99.90;;;;;;5018528;28;20083;-65
2023/04/17 02:02:38;;;;;;;15.80;12.90;;;1.80;99.90;;;;;;5027017;28;20049;-69
2023/04/17 02:05:05;;;;;;;17.88;10.85;;;1.90;99.90;;;;;;5032214;28;20049;-68
2023/04/17 02:07:32;;;;;;;16.25;12.35;;;1.90;99.90;;;;;;5017353;28;20053;-65
2023/04/17 02:09:59;;;;;;;16.90;13.38;;;1.90;99.90;;;;;;5030907;28;20431;-69
2023/04/17 02:12:26;;;;;;;19.00;11.93;;;1.90;99.90;;;;;;5029942;28;20140;-64
2023/04/17 02:14:53;;;;;;;15.45;10.05;;;1.90;99.90;;;;;;5035526;28;20120;-66
2023/04/17 02:17:20;;;;;;;16.70;9.18;;;1.90;99.90;;;;;;5026954;28;20068;-65
2023/04/17 02:19:47;;;;;;;12.65;10.48;;;1.90;99.90;;;;;;5033438;28;20118;-66
2023/04/17 02:22:14;;;;;;;21.70;10.45;;;1.90;99.90;;;;;;5045373;28;20188;-68
2023/04/17 02:24:41;;;;;;;17.35;10.15;;;2.00;99.90;;;;;;5025501;28;20056;-69
2023/04/17 02:27:08;;;;;;;19.02;10.38;;;2.00;99.90;;;;;;5041657;28;20080;-67
2023/04/17 02:29:35;;;;;;;14.13;9.82;;;2.00;99.90;;;;;;5034685;28;20048;-62
2023/04/17 02:32:02;;;;;;;15.60;10.15;;;2.00;99.90;;;;;;5019019;28;20084;-75
2023/04/17 02:34:29;;;;;;;17.80;10.95;;;2.00;99.90;;;;;;5035906;28;20053;-68
2023/04/17 02:36:56;;;;;;;13.85;9.93;;;2.00;99.90;;;;;;5056221;28;20058;-64
2023/04/17 02:39:24;;;;;;;17.13;10.35;;;2.00;99.90;;;;;;5036647;28;20057;-68
2023/04/17 02:41:51;;;;;;;15.90;11.82;;;2.00;99.90;;;;;;5037261;28;20071;-74
2023/04/17 02:44:18;;;;;;;17.52;11.30;;;2.00;99.90;;;;;;5018401;28;20087;-63
2023/04/17 02:46:44;;;;;;;13.60;10.05;;;2.00;99.90;;;;;;5028489;28;20053;-70
2023/04/17 02:49:12;;;;;;;19.38;11.73;;;1.90;99.90;;;;;;5036287;28;20739;-62
2023/04/17 02:51:39;;;;;;;18.90;10.98;;;1.90;99.90;;;;;;5019654;28;20839;-74
2023/04/17 02:54:06;;;;;;;20.15;12.18;;;1.90;99.90;;;;;;5037637;28;20045;-63
2023/04/17 02:56:33;;;;;;;15.57;10.88;;;1.90;99.90;;;;;;5029782;28;20132;-62
2023/04/17 02:59:00;;;;;;;18.38;11.30;;;1.80;99.90;;;;;;5042172;28;20073;-65
2023/04/17 03:01:28;;;;;;;14.43;10.20;;;1.80;99.90;;;;;;5042351;28;20065;-63
2023/04/17 03:03:55;;;;;;;14.77;9.70;;;1.80;99.90;;;;;;5043242;28;20379;-62
2023/04/17 03:06:23;;;;;;;14.48;10.48;;;1.80;99.90;;;;;;5052485;28;20049;-63
2023/04/17 03:08:50;;;;;;;13.80;11.38;;;1.80;99.90;;;;;;5041994;28;20057;-66
2023/04/17 03:11:17;;;;;;;20.15;12.30;;;1.80;99.90;;;;;;5024343;28;20054;-67
2023/04/17 03:13:44;;;;;;;21.52;11.07;;;1.80;99.90;;;;;;5032970;28;20486;-63
2023/04/17 03:16:12;;;;;;;14.50;10.35;;;1.80;99.90;;;;;;5044099;28;20053;-65
2023/04/17 03:18:40;;;;;;;12.32;10.10;;;1.80;99.90;;;;;;5041460;28;20056;-69
2023/04/17 03:21:07;;;;;;;17.00;9.50;;;1.80;99.90;;;;;;5033300;28;20132;-66
2023/04/17 03:23:35;;;;;;;15.45;10.02;;;1.80;99.90;;;;;;5039327;28;20052;-69
2023/04/17 03:26:02;;;;;;;15.40;9.95;;;1.80;99.90;;;;;;5039171;28;20053;-62
2023/04/17 03:28:31;;;;;;;16.23;10.77;;;1.80;99.90;;;;;;5032347;28;20050;-67
2023/04/17 03:30:59;;;;;;;14.85;10.48;;;1.80;99.90;;;;;;5033314;28;20041;-73
2023/04/17 03:33:26;;;;;;;16.17;9.55;;;1.80;99.90;;;;;;5029583;28;20057;-65
2023/04/17 03:35:56;;;;;;;14.18;8.95;;;1.80;99.90;;;;;;5040537;28;20049;-68
2023/04/17 03:38:23;;;;;;;14.70;9.23;;;1.80;99.90;;;;;;5021265;28;20555;-61
2023/04/17 03:40:52;;;;;;;12.80;9.02;;;1.80;99.90;;;;;;5035440;28;20125;-64
2023/04/17 03:43:21;;;;;;;14.27;9.05;;;1.70;99.90;;;;;;5029366;28;20128;-67
2023/04/17 03:45:48;;;;;;;14.65;9.70;;;1.70;99.90;;;;;;5040473;28;20057;-61
2023/04/17 03:48:17;;;;;;;13.10;9.30;;;1.70;99.90;;;;;;5032353;28;20052;-68
2023/04/17 03:50:47;;;;;;;17.80;10.38;;;1.70;99.90;;;;;;5052596;28;20490;-74
2023/04/17 03:53:14;;;;;;;14.35;8.60;;;1.70;99.90;;;;;;5037702;28;20148;-65
2023/04/17 03:55:41;;;;;;;16.83;8.65;;;1.70;99.90;;;;;;5007781;28;20042;-65
2023/04/17 03:58:14;;;;;;;14.32;9.80;;;1.60;99.90;;;;;;5040512;28;20756;-63
2023/04/17 04:00:41;;;;;;;16.20;10.13;;;1.70;99.90;;;;;;5038405;28;20049;-72
2023/04/17 04:03:09;;;;;;;13.25;9.82;;;1.60;99.90;;;;;;5044432;28;20077;-65
2023/04/17 04:05:40;;;;;;;11.35;8.25;;;1.60;99.90;;;;;;5038454;28;20136;-63
2023/04/17 04:08:09;;;;;;;11.75;8.45;;;1.60;99.90;;;;;;5020824;28;20045;-66
2023/04/17 04:10:43;;;;;;;14.80;9.25;;;1.60;99.90;;;;;;5031931;28;20045;-64
2023/04/17 04:13:14;;;;;;;16.23;8.88;;;1.60;99.90;;;;;;5037068;28;20044;-71
2023/04/17 04:15:46;;;;;;;15.45;8.18;;;1.60;99.90;;;;;;5038729;28;20049;-62
2023/04/17 04:18:16;;;;;;;15.93;9.88;;;1.60;99.90;;;;;;5036494;28;20861;-62
2023/04/17 04:20:44;;;;;;;15.65;9.77;;;1.70;99.90;;;;;;5044958;28;20056;-66
2023/04/17 04:23:19;;;;;;;15.20;9.73;;;1.70;99.90;;;;;;5049708;28;20056;-63
2023/04/17 04:25:48;;;;;;;22.77;10.10;;;1.70;99.90;;;;;;5036510;28;20052;-64
2023/04/17 04:28:36;;;;;;;17.10;8.75;;;1.70;99.90;;;;;;5035794;28;20114;-73
2023/04/17 04:31:06;;;;;;;15.43;10.52;;;1.70;99.90;;;;;;5037855;28;20411;-72
2023/04/17 04:33:37;;;;;;;14.02;9.27;;;1.70;99.90;;;;;;5030801;28;20060;-72
2023/04/17 04:36:04;;;;;;;14.90;8.98;;;1.70;99.90;;;;;;5032083;28;20131;-69
2023/04/17 04:38:33;;;;;;;15.40;9.02;;;1.70;99.90;;;;;;5012428;28;20053;-64
2023/04/17 04:41:09;;;;;;;15.43;9.40;;;1.80;99.90;;;;;;5041824;28;20048;-63
2023/04/17 04:43:37;;;;;;;17.90;9.60;;;1.80;99.90;;;;;;5031154;28;20057;-68
2023/04/17 04:46:06;;;;;;;21.90;8.82;;;1.90;99.90;;;;;;5038118;28;20067;-68
2023/04/17 04:48:37;;;;;;;18.38;9.43;;;1.90;99.90;;;;;;5038581;28;20053;-62
2023/04/17 04:51:08;;;;;;;22.02;8.35;;;2.00;99.90;;;;;;5045447;28;20064;-63
2023/04/17 04:53:36;;;;;;;15.38;9.05;;;2.00;99.90;;;;;;5041221;28;20179;-68
2023/04/17 04:56:04;;;;;;;15.07;11.25;;;2.00;99.90;;;;;;5038699;28;20136;-65
2023/04/17 04:58:33;;;;;;;20.55;8.80;;;2.10;99.90;;;;;;5036030;28;20050;-68
2023/04/17 05:01:01;;;;;;;15.00;8.25;;;2.20;99.90;;;;;;5032188;28;20510;-74
2023/04/17 05:03:36;;;;;;;17.58;9.55;;;2.20;99.90;;;;;;5023720;28;20045;-66
2023/04/17 05:06:04;;;;;;;;;;;2.20;99.90;;;;;;5042116;28;20053;-69
2023/04/17 05:08:42;;;;;;;19.55;8.32;;;2.30;99.90;;;;;;5014619;28;19921;-64
2023/04/17 05:11:10;;;;;;;14.45;7.53;;;2.30;99.90;;;;;;5034704;28;20217;-76
2023/04/17 05:13:38;;;;;;;17.40;10.63;;;2.40;99.90;;;;;;5033495;28;20563;-63
2023/04/17 05:16:08;;;;;;;13.63;7.78;;;2.40;99.90;;;;;;5043796;28;20045;-61
2023/04/17 05:18:35;;;;;;;15.02;7.43;;;2.50;99.90;;;;;;5036035;28;20060;-66
2023/04/17 05:21:02;;;;;;;13.93;7.45;;;2.50;99.90;;;;;;5039012;28;20045;-62
2023/04/17 05:23:30;;;;;;;14.48;8.25;;;2.50;99.90;;;;;;5044295;28;20045;-61
2023/04/17 05:25:57;;;;;;;15.10;8.13;;;2.60;99.90;;;;;;5030150;28;20442;-68
2023/04/17 05:28:26;;;;;;;15.65;8.07;;;2.70;99.90;;;;;;5034798;28;20056;-66
2023/04/17 05:30:56;;;;;;;11.65;7.25;;;2.80;99.90;;;;;;5034855;28;20463;-67
2023/04/17 05:33:31;;;;;;;16.55;9.13;;;2.90;99.90;;;;;;5022420;28;20496;-62
2023/04/17 05:36:00;;;;;;;15.23;7.80;;;3.00;99.90;;;;;;5042512;28;20077;-62
2023/04/17 05:38:28;;;;;;;12.40;7.47;;;3.10;99.90;;;;;;5030789;28;20484;-62
2023/04/17 05:40:55;;;;;;;31.88;7.72;;;3.20;99.90;;;;;;5022059;28;20058;-72
2023/04/17 05:43:22;;;;;;;15.40;8.02;;;3.20;99.90;;;;;;5030188;28;20061;-62
2023/04/17 05:45:51;;;;;;;14.75;7.68;;;3.30;99.90;;;;;;5037011;28;20115;-64
2023/04/17 05:48:17;;;;;;;14.77;6.78;;;3.40;99.90;;;;;;5030724;28;20055;-61
2023/04/17 05:50:44;;;;;;;21.30;7.32;;;3.40;99.90;;;;;;5038677;28;20057;-65
2023/04/17 05:53:11;;;;;;;15.05;7.97;;;3.40;99.90;;;;;;5036858;28;20159;-62
2023/04/17 05:55:46;;;;;;;14.05;6.63;;;3.50;99.90;;;;;;5025036;28;20116;-63
2023/04/17 05:58:13;;;;;;;15.15;5.63;;;3.50;99.90;;;;;;5039746;28;20151;-73
2023/04/17 06:00:43;;;;;;;18.50;8.10;;;3.50;99.90;;;;;;5038848;28;20128;-66
2023/04/17 06:03:13;;;;;;;26.95;7.35;;;3.60;99.90;;;;;;5028035;28;20103;-71
2023/04/17 06:05:45;;;;;;;12.75;8.13;;;3.60;99.90;;;;;;5036582;28;20131;-62
2023/04/17 06:08:13;;;;;;;16.92;7.22;;;3.70;99.90;;;;;;5042166;28;20526;-62
2023/04/17 06:10:40;;;;;;;10.07;7.07;;;3.80;99.90;;;;;;5057970;28;20060;-70
2023/04/17 06:13:07;;;;;;;10.60;7.60;;;3.80;99.90;;;;;;5039367;28;20107;-65
2023/04/17 06:15:35;;;;;;;21.77;7.03;;;3.80;99.90;;;;;;5023924;28;20835;-64
2023/04/17 06:18:02;;;;;;;11.55;7.20;;;3.80;99.90;;;;;;5037463;28;20052;-63
2023/04/17 06:20:29;;;;;;;11.45;6.30;;;3.90;99.90;;;;;;5035079;28;20057;-61
2023/04/17 06:22:56;;;;;;;12.15;6.20;;;3.90;99.90;;;;;;5024431;28;20041;-65
2023/04/17 06:25:23;;;;;;;12.07;6.05;;;4.00;99.90;;;;;;5037244;28;20172;-64
2023/04/17 06:27:50;;;;;;;11.23;6.28;;;4.00;99.90;;;;;;5034441;28;20359;-61
2023/04/17 06:30:17;;;;;;;32.97;10.30;;;4.10;99.90;;;;;;5031403;28;20061;-64
2023/04/17 06:32:49;;;;;;;7.20;5.25;;;4.10;99.90;;;;;;5040916;28;20061;-64
2023/04/17 06:35:18;;;;;;;13.65;5.95;;;4.20;99.90;;;;;;5025443;28;20442;-72
2023/04/17 06:37:49;;;;;;;7.47;4.85;;;4.30;99.90;;;;;;5018665;28;20103;-63
2023/04/17 06:40:16;;;;;;;9.90;5.15;;;4.40;99.90;;;;;;5033989;28;20946;-65
2023/04/17 06:42:43;;;;;;;9.35;4.85;;;4.40;99.90;;;;;;5026958;28;20375;-65
2023/04/17 06:45:16;;;;;;;10.60;5.60;;;4.40;99.90;;;;;;5025328;28;20407;-73
2023/04/17 06:47:45;;;;;;;8.65;4.70;;;4.40;99.90;;;;;;5034769;28;20055;-64
2023/04/17 06:50:15;;;;;;;10.05;5.55;;;4.40;99.90;;;;;;5034040;28;20076;-64
2023/04/17 06:52:42;;;;;;;8.52;5.90;;;4.40;99.90;;;;;;5026317;28;20699;-63
2023/04/17 06:55:09;;;;;;;5.90;4.80;;;4.50;99.90;;;;;;5039131;28;20053;-68
2023/04/17 06:57:37;;;;;;;11.20;4.78;;;4.50;99.90;;;;;;5034612;28;20049;-64
2023/04/17 07:00:05;;;;;;;10.57;6.85;;;4.50;99.90;;;;;;5035136;28;20052;-64
2023/04/17 07:02:32;;;;;;;9.95;4.97;;;4.50;99.90;;;;;;5028441;28;20057;-60
2023/04/17 07:04:59;;;;;;;10.90;5.38;;;4.50;99.90;;;;;;5032078;28;20435;-66
2023/04/17 07:07:28;;;;;;;8.25;5.00;;;4.50;99.90;;;;;;5031360;28;20055;-63
2023/04/17 07:09:56;;;;;;;11.15;5.13;;;4.50;99.90;;;;;;5017379;28;20554;-63
2023/04/17 07:12:23;;;;;;;10.93;4.60;;;4.50;99.90;;;;;;5020864;28;20548;-63
2023/04/17 07:14:50;;;;;;;11.98;4.90;;;4.60;99.90;;;;;;5040407;28;20076;-65
2023/04/17 07:17:17;;;;;;;11.45;5.05;;;4.60;99.90;;;;;;5016935;28;20045;-63
2023/04/17 07:19:44;;;;;;;6.88;5.68;;;4.60;99.90;;;;;;5011827;28;20059;-64
2023/04/17 07:22:11;;;;;;;12.18;6.10;;;4.70;99.90;;;;;;5028302;28;20083;-64
2023/04/17 07:24:37;;;;;;;7.57;4.90;;;4.80;99.90;;;;;;5024242;28;20045;-63
2023/04/17 07:27:06;;;;;;;9.13;4.72;;;4.80;99.90;;;;;;5038711;28;20218;-62
2023/04/17 07:29:33;;;;;;;8.63;4.95;;;4.90;99.90;;;;;;5018553;28;20942;-65
2023/04/17 07:32:00;;;;;;;12.48;5.97;;;4.90;99.90;;;;;;5036367;28;20080;-63
2023/04/17 07:34:29;;;;;;;7.80;5.22;;;5.00;99.90;;;;;;5019581;28;20472;-63
2023/04/17 07:36:56;;;;;;;8.32;4.95;;;5.00;99.90;;;;;;5029611;28;20065;-69
2023/04/17 07:39:27;;;;;;;9.13;5.55;;;4.80;99.90;;;;;;5037841;28;20557;-63
2023/04/17 07:41:55;;;;;;;9.95;5.45;;;4.80;99.90;;;;;;5040181;28;20051;-63
2023/04/17 07:44:21;;;;;;;7.00;5.05;;;4.80;99.90;;;;;;5038574;28;20045;-67
2023/04/17 07:46:48;;;;;;;7.20;5.00;;;4.80;99.90;;;;;;5040371;28;20053;-65
2023/04/17 07:49:15;;;;;;;7.43;5.00;;;4.90;99.90;;;;;;5028195;28;20061;-64
2023/04/17 07:51:43;;;;;;;9.40;4.82;;;4.90;99.90;;;;;;5018816;28;20041;-68
2023/04/17 07:54:10;;;;;;;20.60;7.07;;;5.00;99.90;;;;;;5021860;28;20057;-63
2023/04/17 07:56:37;;;;;;;10.38;5.22;;;5.00;99.90;;;;;;5032922;28;20144;-63
2023/04/17 07:59:03;;;;;;;6.28;4.63;;;5.00;99.90;;;;;;5026715;28;20060;-62
2023/04/17 08:01:30;;;;;;;14.05;5.30;;;5.10;99.90;;;;;;5017944;28;20077;-68
2023/04/17 08:03:57;;;;;;;11.95;4.88;;;5.10;99.90;;;;;;5021147;28;20592;-63
2023/04/17 08:06:25;;;;;;;12.68;5.85;;;5.00;99.90;;;;;;5029785;28;20077;-68
2023/04/17 08:08:52;;;;;;;11.65;4.88;;;5.00;99.90;;;;;;5018959;28;20054;-69
2023/04/17 08:11:19;;;;;;;10.35;4.63;;;5.00;99.90;;;;;;5020013;28;20056;-63
2023/04/17 08:13:46;;;;;;;7.68;4.35;;;5.00;99.90;;;;;;5016187;28;20057;-67
2023/04/17 08:16:13;;;;;;;7.22;4.35;;;4.90;99.90;;;;;;5034823;28;20462;-63
2023/04/17 08:18:40;;;;;;;12.85;4.60;;;5.00;99.90;;;;;;5025301;28;20046;-70
2023/04/17 08:21:08;;;;;;;9.98;4.75;;;5.00;99.90;;;;;;5039182;28;20522;-68
2023/04/17 08:23:35;;;;;;;6.72;5.05;;;4.90;99.90;;;;;;5036367;28;20059;-73
2023/04/17 08:26:02;;;;;;;16.33;4.72;;;4.90;99.90;;;;;;5036966;28;20765;-70
2023/04/17 08:28:29;;;;;;;6.20;4.05;;;4.90;99.90;;;;;;5028724;28;20057;-71
2023/04/17 08:30:56;;;;;;;12.88;5.63;;;4.90;99.90;;;;;;5035987;28;20152;-62
2023/04/17 08:33:23;;;;;;;8.45;3.97;;;5.00;99.90;;;;;;5016166;28;20065;-63
2023/04/17 08:35:50;;;;;;;10.25;4.55;;;5.10;99.90;;;;;;5027770;28;20050;-69
2023/04/17 08:38:17;;;;;;;13.35;5.18;;;5.10;99.90;;;;;;5037970;28;20501;-74
2023/04/17 08:40:50;;;;;;;7.43;5.22;;;5.00;99.90;;;;;;5037746;28;20053;-66
2023/04/17 08:43:19;;;;;;;5.93;4.05;;;5.00;99.90;;;;;;5017409;28;20054;-65
2023/04/17 08:45:55;;;;;;;13.35;6.28;;;4.90;99.90;;;;;;5038711;28;20379;-63
2023/04/17 08:48:23;;;;;;;6.93;4.88;;;5.00;99.90;;;;;;5045450;28;20076;-63
2023/04/17 08:50:52;;;;;;;8.73;4.63;;;5.10;99.90;;;;;;5038340;28;20609;-73
2023/04/17 08:53:20;;;;;;;8.85;4.68;;;5.10;99.90;;;;;;5041435;28;20068;-64
2023/04/17 08:55:47;;;;;;;6.35;4.93;;;5.20;99.90;;;;;;5034541;28;20136;-63
2023/04/17 08:58:14;;;;;;;9.25;4.75;;;5.20;99.90;;;;;;5032006;28;20081;-65
2023/04/17 09:00:43;;;;;;;13.05;5.22;;;5.30;99.90;;;;;;5026698;28;20053;-68
2023/04/17 09:03:11;;;;;;;10.52;5.97;;;5.20;99.90;;;;;;5021232;28;20065;-66
2023/04/17 09:05:42;;;;;;;8.88;5.00;;;5.20;99.90;;;;;;5036744;28;20140;-64
2023/04/17 09:08:09;;;;;;;8.77;5.13;;;5.20;99.90;;;;;;5040636;28;20046;-71
2023/04/17 09:10:38;;;;;;;12.95;5.80;;;5.30;99.90;;;;;;5027324;28;20049;-63
2023/04/17 09:13:05;;;;;;;19.33;6.35;;;5.40;99.90;;;;;;5041765;28;20132;-68
2023/04/17 09:15:33;;;;;;;7.80;4.93;;;5.40;99.90;;;;;;5025284;28;20511;-65
2023/04/17 09:18:01;;;;;;;13.23;5.50;;;5.40;99.90;;;;;;5042651;28;20491;-63
2023/04/17 09:20:28;;;;;;;11.43;4.65;;;5.50;99.90;;;;;;5032136;28;20050;-69
2023/04/17 09:23:00;;;;;;;6.88;5.40;;;5.60;99.90;;;;;;5036308;28;20041;-66
2023/04/17 09:25:27;;;;;;;15.13;5.10;;;5.50;99.90;;;;;;5026022;28;20112;-66
2023/04/17 09:28:08;;;;;;;6.85;4.25;;;5.60;99.90;;;;;;5044420;28;20444;-65
2023/04/17 09:30:37;;;;;;;10.93;4.60;;;5.50;99.90;;;;;;5039522;28;20119;-67
2023/04/17 09:33:05;;;;;;;6.85;4.75;;;5.60;99.90;;;;;;5026271;28;20085;-63
2023/04/17 09:35:32;;;;;;;10.00;5.00;;;5.80;99.90;;;;;;5029279;28;20220;-75
2023/04/17 09:37:59;;;;;;;9.55;5.10;;;5.80;99.90;;;;;;5033821;28;20091;-64
2023/04/17 09:40:36;;;;;;;10.98;5.25;;;6.00;99.90;;;;;;5029865;28;20054;-63
2023/04/17 09:43:05;;;;;;;11.70;5.40;;;6.10;99.90;;;;;;5024220;28;20108;-63
2023/04/17 09:45:36;;;;;;;18.65;6.38;;;6.10;99.90;;;;;;5042982;28;20479;-63
2023/04/17 09:48:06;;;;;;;10.82;5.70;;;6.10;99.90;;;;;;5037973;28;20479;-64
2023/04/17 09:50:34;;;;;;;13.80;5.53;;;6.00;99.90;;;;;;5024417;28;20561;-65
2023/04/17 09:53:04;;;;;;;7.53;4.60;;;6.00;99.90;;;;;;5036451;28;20052;-66
2023/04/17 09:55:32;;;;;;;8.10;5.28;;;6.00;99.90;;;;;;5042901;28;20132;-69
2023/04/17 09:58:02;;;;;;;12.43;6.03;;;6.00;99.90;;;;;;5040009;28;20041;-62
2023/04/17 10:00:29;;;;;;;11.50;5.45;;;6.00;99.90;;;;;;5025057;28;20136;-68
2023/04/17 10:02:57;;;;;;;10.00;5.60;;;6.10;99.90;;;;;;5044287;28;20048;-65
2023/04/17 10:05:27;;;;;;;9.05;5.25;;;6.00;99.90;;;;;;5039650;28;20135;-62
2023/04/17 10:07:55;;;;;;;10.32;4.53;;;5.90;99.90;;;;;;5017390;28;20115;-63
2023/04/17 10:10:32;;;;;;;13.73;5.25;;;6.10;99.90;;;;;;5025313;28;20063;-68
2023/04/17 10:13:01;;;;;;;9.15;5.50;;;6.20;99.90;;;;;;5026477;28;20255;-71
2023/04/17 10:15:29;;;;;;;7.28;4.22;;;6.30;99.90;;;;;;5044270;28;20636;-66
2023/04/17 10:18:19;;;;;;;11.05;5.97;;;6.30;99.90;;;;;;5033441;28;20186;-62
2023/04/17 10:20:47;;;;;;;6.57;5.28;;;6.30;99.90;;;;;;5026915;28;20045;-63
2023/04/17 10:23:33;;;;;;;8.32;5.50;;;6.30;99.90;;;;;;5034364;28;20056;-62
2023/04/17 10:26:25;;;;;;;8.50;5.05;;;6.40;99.90;;;;;;5037746;28;20060;-71
2023/04/17 10:28:54;;;;;;;7.97;5.07;;;6.30;99.90;;;;;;5038663;28;20104;-61
2023/04/17 10:31:25;;;;;;;7.30;4.32;;;6.30;99.90;;;;;;5030143;28;20081;-65
2023/04/17 10:33:53;;;;;;;;;;;6.40;99.90;;;;;;5016683;28;20049;-65
2023/04/17 10:36:38;;;;;;;23.20;5.68;;;6.50;99.90;;;;;;5032974;28;20001;-65
2023/04/17 10:39:16;;;;;;;9.82;5.63;;;6.50;99.90;;;;;;5036495;28;20048;-63
2023/04/17 10:42:03;;;;;;;9.73;5.38;;;6.30;99.90;;;;;;5033826;28;20144;-70
2023/04/17 10:44:34;;;;;;;10.27;5.30;;;6.40;99.90;;;;;;5027991;28;20048;-70
2023/04/17 10:47:06;;;;;;;6.18;5.03;;;6.40;99.90;;;;;;5035147;28;20120;-64
2023/04/17 10:49:59;;;;;;;8.82;4.55;;;6.50;99.90;;;;;;5027788;28;20452;-68
2023/04/17 10:52:33;;;;;;;5.35;4.70;;;6.50;99.90;;;;;;5019721;28;20046;-62
2023/04/17 10:55:22;;;;;;;13.88;5.80;;;6.40;99.90;;;;;;5029162;28;20045;-66
2023/04/17 10:57:51;;;;;;;9.57;4.60;;;6.50;99.90;;;;;;5035023;28;20439;-61
2023/04/17 11:00:20;;;;;;;7.93;4.77;;;6.40;99.90;;;;;;5032166;28;20053;-71
2023/04/17 11:02:50;;;;;;;6.80;4.55;;;6.30;99.90;;;;;;5029885;28;20071;-64
2023/04/17 11:05:17;;;;;;;9.50;4.00;;;6.30;99.90;;;;;;5041246;28;20071;-66
2023/04/17 11:07:52;;;;;;;8.02;5.88;;;6.50;99.90;;;;;;5036978;28;20053;-64
2023/04/17 11:10:20;;;;;;;7.82;5.07;;;6.50;99.90;;;;;;5027553;28;20081;-64
2023/04/17 11:12:52;;;;;;;5.20;4.70;;;6.50;99.90;;;;;;5029737;28;20068;-64
2023/04/17 11:15:30;;;;;;;10.48;4.60;;;6.40;99.90;;;;;;5039279;28;20143;-65
2023/04/17 11:17:57;;;;;;;10.63;6.03;;;6.60;99.90;;;;;;5038859;28;20045;-66
2023/04/17 11:20:27;;;;;;;8.45;4.65;;;6.80;99.90;;;;;;5039292;28;20441;-67
2023/04/17 11:22:54;;;;;;;9.75;4.65;;;6.90;99.90;;;;;;5030128;28;20443;-63
2023/04/17 11:25:25;;;;;;;11.82;5.03;;;6.80;99.90;;;;;;5037367;28;20061;-66
2023/04/17 11:28:05;;;;;;;12.93;5.30;;;6.70;99.90;;;;;;5037988;28;20110;-66
2023/04/17 11:30:34;;;;;;;8.35;4.20;;;6.80;99.90;;;;;;5040962;28;20051;-66
2023/04/17 11:33:04;;;;;;;6.68;4.70;;;6.90;99.90;;;;;;5036046;28;20081;-63
2023/04/17 11:35:37;;;;;;;7.65;4.80;;;7.00;99.90;;;;;;5038022;28;20566;-62
2023/04/17 11:38:12;;;;;;;15.40;6.82;;;6.80;99.90;;;;;;5036382;28;20072;-67
2023/04/17 11:40:47;;;;;;;11.82;7.18;;;6.80;99.90;;;;;;5040042;28;20076;-75
2023/04/17 11:43:15;;;;;;;9.40;4.03;;;6.90;99.90;;;;;;5036294;28;20048;-62
2023/04/17 11:45:43;;;;;;;7.82;5.30;;;7.00;99.90;;;;;;5022886;28;20045;-64
2023/04/17 11:48:12;;;;;;;6.15;4.78;;;6.90;99.90;;;;;;5031392;28;20088;-68
2023/04/17 11:50:43;;;;;;;7.18;5.13;;;6.90;99.90;;;;;;5029605;28;20053;-72
2023/04/17 11:53:15;;;;;;;6.13;5.15;;;7.10;99.90;;;;;;5038351;28;20072;-65
2023/04/17 11:55:43;;;;;;;11.43;5.00;;;7.00;99.90;;;;;;5030060;28;20498;-68
2023/04/17 11:58:11;;;;;;;6.60;4.05;;;7.20;99.90;;;;;;5038464;28;20058;-69
2023/04/17 12:00:39;;;;;;;8.40;4.82;;;7.30;99.90;;;;;;5035140;28;20151;-75
2023/04/17 12:03:32;;;;;;;11.52;5.30;;;7.30;99.90;;;;;;5022575;28;20045;-61
2023/04/17 12:06:04;;;;;;;7.00;4.65;;;7.30;99.90;;;;;;5021329;28;20049;-65
2023/04/17 12:08:46;;;;;;;9.57;5.28;;;7.30;99.90;;;;;;5029424;28;20124;-62
2023/04/17 12:11:31;;;;;;;8.27;5.20;;;7.30;99.90;;;;;;5018895;28;20057;-75
2023/04/17 12:13:59;;;;;;;11.43;4.97;;;7.30;99.90;;;;;;5032739;28;20235;-64
2023/04/17 12:16:28;;;;;;;7.75;5.05;;;7.40;99.90;;;;;;5034282;28;20123;-72
2023/04/17 12:18:56;;;;;;;17.10;6.30;;;7.40;99.90;;;;;;5027291;28;20069;-64
2023/04/17 12:21:23;;;;;;;10.43;5.35;;;7.40;99.90;;;;;;5016862;28;20503;-66
2023/04/17 12:23:50;;;;;;;12.52;5.18;;;7.30;99.90;;;;;;5038657;28;20136;-70
2023/04/17 12:26:17;;;;;;;24.00;6.68;;;7.30;99.90;;;;;;5036235;28;20237;-64
2023/04/17 12:28:44;;;;;;;41.67;8.30;;;7.40;99.90;;;;;;5043634;28;20045;-64
2023/04/17 12:31:11;;;;;;;14.88;5.25;;;7.20;99.90;;;;;;5039415;28;20872;-75
2023/04/17 12:33:38;;;;;;;15.88;6.57;;;6.90;99.90;;;;;;5018263;28;20141;-70
2023/04/17 12:36:05;;;;;;;27.98;6.47;;;7.00;99.90;;;;;;5035354;28;20144;-61
2023/04/17 12:38:33;;;;;;;11.75;5.10;;;7.00;99.90;;;;;;5029428;28;20143;-72
2023/04/17 12:40:59;;;;;;;11.00;4.70;;;6.90;99.90;;;;;;5042995;28;20400;-64
2023/04/17 12:43:26;;;;;;;8.48;6.00;;;6.90;99.90;;;;;;5037914;28;20057;-72
2023/04/17 12:45:53;;;;;;;12.38;6.72;;;7.00;99.90;;;;;;5039760;28;20057;-68
2023/04/17 12:48:20;;;;;;;9.25;5.70;;;6.90;99.90;;;;;;5045501;28;20490;-61
2023/04/17 12:50:47;;;;;;;12.25;5.15;;;6.80;99.90;;;;;;5043187;28;20050;-64
2023/04/17 12:53:14;;;;;;;13.80;6.00;;;7.00;99.90;;;;;;5036839;28;20047;-70
2023/04/17 12:55:42;;;;;;;20.52;7.30;;;7.00;99.90;;;;;;5023803;28;20061;-68
2023/04/17 12:58:11;;;;;;;8.73;5.20;;;6.90;99.90;;;;;;5039307;28;20053;-64